createdAt,value
2023-01-09T00:01:51.763Z,96245.91
2023-01-09T00:04:18.727Z,96240.00
2023-01-09T00:06:50.174Z,96235.25
2023-01-09T00:09:16.692Z,96237.59
2023-01-09T00:11:43.186Z,96233.63
2023-01-09T00:14:11.067Z,96226.56
2023-01-09T00:16:38.052Z,96232.88
2023-01-09T00:19:04.835Z,96227.34
2023-01-09T00:21:31.387Z,96224.19
2023-01-09T00:23:57.912Z,96225.75
2023-01-09T00:26:24.641Z,96212.38
2023-01-09T00:28:51.418Z,96201.81
2023-01-09T00:31:18.168Z,96208.00
2023-01-09T00:33:46.007Z,96206.41
2023-01-09T00:36:12.559Z,96201.69
2023-01-09T00:38:39.086Z,96199.34
2023-01-09T00:41:11.560Z,96190.66
2023-01-09T00:43:40.937Z,96193.47
2023-01-09T00:46:07.489Z,96183.19
2023-01-09T00:48:34.048Z,96191.06
2023-01-09T00:51:00.596Z,96182.84
2023-01-09T00:53:29.389Z,96183.25
2023-01-09T00:55:58.413Z,96183.59
2023-01-09T00:58:24.894Z,96180.03
2023-01-09T01:00:51.451Z,96188.28
2023-01-09T01:03:17.972Z,96186.28
2023-01-09T01:06:02.957Z,96180.41
2023-01-09T01:08:29.425Z,96180.00
2023-01-09T01:10:55.908Z,96190.25
2023-01-09T01:13:22.395Z,96196.09
2023-01-09T01:15:48.912Z,96193.72
2023-01-09T01:18:15.469Z,96198.81
2023-01-09T01:20:42.957Z,96204.34
2023-01-09T01:23:09.510Z,96206.72
2023-01-09T01:25:40.110Z,96215.00
2023-01-09T01:28:06.694Z,96197.66
2023-01-09T01:30:33.699Z,96207.88
2023-01-09T01:33:00.393Z,96205.50
2023-01-09T01:35:26.943Z,96203.91
2023-01-09T01:37:53.458Z,96215.31
2023-01-09T01:40:20.261Z,96212.59
2023-01-09T01:42:50.898Z,96208.22
2023-01-09T01:45:22.225Z,96209.44
2023-01-09T01:47:55.001Z,96207.41
2023-01-09T01:50:29.861Z,96205.13
2023-01-09T01:52:59.403Z,96202.69
2023-01-09T01:55:26.174Z,96209.47
2023-01-09T01:57:54.979Z,96202.31
2023-01-09T02:00:22.629Z,96201.91
2023-01-09T02:02:49.202Z,96194.00
2023-01-09T02:05:15.747Z,96195.19
2023-01-09T02:07:42.522Z,96195.59
2023-01-09T02:10:09.407Z,96178.31
2023-01-09T02:12:35.884Z,96181.41
2023-01-09T02:15:13.830Z,96175.88
2023-01-09T02:18:28.598Z,96186.06
2023-01-09T02:21:25.265Z,96190.38
2023-01-09T02:24:20.262Z,96181.78
2023-01-09T02:27:22.321Z,96184.94
2023-01-09T02:30:19.329Z,96184.94
2023-01-09T02:33:13.229Z,96180.53
2023-01-09T02:36:01.003Z,96191.13
2023-01-09T02:38:53.721Z,96182.84
2023-01-09T02:41:47.405Z,96185.59
2023-01-09T02:44:24.631Z,96191.41
2023-01-09T02:47:05.001Z,96173.34
2023-01-09T02:49:32.313Z,96187.88
2023-01-09T02:52:09.151Z,96183.50
2023-01-09T02:54:40.768Z,96173.19
2023-01-09T02:57:11.382Z,96181.09
2023-01-09T02:59:54.157Z,96181.88
2023-01-09T03:02:34.442Z,96194.97
2023-01-09T03:05:03.791Z,96201.97
2023-01-09T03:07:35.107Z,96197.59
2023-01-09T03:10:09.869Z,96188.09
2023-01-09T03:12:36.347Z,96180.94
2023-01-09T03:15:02.852Z,96181.75
2023-01-09T03:17:40.305Z,96176.13
2023-01-09T03:20:07.533Z,96182.50
2023-01-09T03:22:34.018Z,96179.06
2023-01-09T03:25:00.493Z,96169.78
2023-01-09T03:27:27.006Z,96171.00
2023-01-09T03:29:53.477Z,96165.81
2023-01-09T03:32:20.044Z,96173.97
2023-01-09T03:34:46.511Z,96167.28
2023-01-09T03:37:13.015Z,96165.72
2023-01-09T03:39:39.535Z,96167.22
2023-01-09T03:42:06.047Z,96157.06
2023-01-09T03:44:32.497Z,96162.38
2023-01-09T03:46:58.982Z,96161.84
2023-01-09T03:49:25.442Z,96159.47
2023-01-09T03:51:51.909Z,96163.50
2023-01-09T03:54:18.368Z,96166.19
2023-01-09T03:56:44.834Z,96156.34
2023-01-09T03:59:11.302Z,96164.41
2023-01-09T04:01:37.978Z,96154.88
2023-01-09T04:04:04.638Z,96150.09
2023-01-09T04:06:31.155Z,96146.91
2023-01-09T04:08:57.629Z,96160.34
2023-01-09T04:11:24.145Z,96159.03
2023-01-09T04:13:50.619Z,96156.72
2023-01-09T04:16:17.162Z,96165.44
2023-01-09T04:18:43.649Z,96158.69
2023-01-09T04:21:10.223Z,96164.19
2023-01-09T04:23:36.723Z,96176.78
2023-01-09T04:26:03.445Z,96177.63
2023-01-09T04:28:30.164Z,96176.34
2023-01-09T04:30:56.686Z,96185.03
2023-01-09T04:33:23.174Z,96197.09
2023-01-09T04:35:49.633Z,96184.50
2023-01-09T04:38:16.102Z,96181.81
2023-01-09T04:40:42.577Z,96186.44
2023-01-09T04:43:09.048Z,96184.50
2023-01-09T04:45:35.586Z,96188.53
2023-01-09T04:48:02.078Z,96181.44
2023-01-09T04:50:29.955Z,96183.34
2023-01-09T04:52:57.797Z,96179.75
2023-01-09T04:55:24.284Z,96189.59
2023-01-09T04:57:50.778Z,96193.09
2023-01-09T05:00:17.291Z,96186.31
2023-01-09T05:02:43.762Z,96202.16
2023-01-09T05:05:11.677Z,96208.06
2023-01-09T05:07:38.461Z,96213.16
2023-01-09T05:10:05.412Z,96206.81
2023-01-09T05:12:31.904Z,96209.63
2023-01-09T05:14:58.363Z,96211.53
2023-01-09T05:17:24.846Z,96220.63
2023-01-09T05:19:51.369Z,96217.88
2023-01-09T05:22:17.877Z,96232.69
2023-01-09T05:24:44.401Z,96246.13
2023-01-09T05:27:10.908Z,96246.59
2023-01-09T05:29:37.381Z,96249.72
2023-01-09T05:32:03.982Z,96250.72
2023-01-09T05:34:30.516Z,96250.28
2023-01-09T05:36:57.003Z,96255.78
2023-01-09T05:39:23.748Z,96268.34
2023-01-09T05:41:50.277Z,96262.94
2023-01-09T05:44:16.813Z,96273.66
2023-01-09T05:46:43.303Z,96275.91
2023-01-09T05:49:09.751Z,96270.91
2023-01-09T05:51:36.310Z,96267.94
2023-01-09T05:54:04.028Z,96262.09
2023-01-09T05:56:30.525Z,96264.00
2023-01-09T05:58:56.997Z,96254.63
2023-01-09T06:01:23.969Z,96261.16
2023-01-09T06:03:50.590Z,96267.31
2023-01-09T06:06:17.076Z,96258.28
2023-01-09T06:08:43.565Z,96264.50
2023-01-09T06:11:10.063Z,96270.16
2023-01-09T06:13:36.548Z,96269.97
2023-01-09T06:16:03.174Z,96280.13
2023-01-09T06:18:29.689Z,96275.84
2023-01-09T06:20:56.179Z,96286.94
2023-01-09T06:23:22.649Z,96284.19
2023-01-09T06:25:49.128Z,96301.31
2023-01-09T06:28:15.647Z,96305.81
2023-01-09T06:30:42.114Z,96313.66
2023-01-09T06:33:08.604Z,96307.78
2023-01-09T06:35:35.088Z,96321.06
2023-01-09T06:38:03.332Z,96309.75
2023-01-09T06:40:29.806Z,96317.94
2023-01-09T06:42:56.631Z,96324.72
2023-01-09T06:45:23.130Z,96315.81
2023-01-09T06:47:50.105Z,96317.63
2023-01-09T06:50:16.967Z,96329.69
2023-01-09T06:52:43.449Z,96323.75
2023-01-09T06:55:09.988Z,96328.75
2023-01-09T06:57:36.457Z,96323.19
2023-01-09T07:00:03.279Z,96329.03
2023-01-09T07:02:29.936Z,96327.66
2023-01-09T07:04:56.423Z,96323.19
2023-01-09T07:07:22.927Z,96320.69
2023-01-09T07:09:49.512Z,96335.66
2023-01-09T07:12:16.041Z,96318.59
2023-01-09T07:14:42.532Z,96334.91
2023-01-09T07:17:11.672Z,96330.06
2023-01-09T07:19:38.146Z,96332.88
2023-01-09T07:22:05.667Z,96337.50
2023-01-09T07:24:32.184Z,96334.84
2023-01-09T07:26:58.676Z,96339.47
2023-01-09T07:29:25.155Z,96352.22
2023-01-09T07:31:51.711Z,96341.34
2023-01-09T07:34:18.389Z,96359.56
2023-01-09T07:36:46.657Z,96367.09
2023-01-09T07:39:13.647Z,96376.34
2023-01-09T07:41:40.203Z,96374.66
2023-01-09T07:44:08.972Z,96389.81
2023-01-09T07:46:36.739Z,96388.50
2023-01-09T07:49:03.326Z,96392.13
2023-01-09T07:51:30.098Z,96401.78
2023-01-09T07:53:56.564Z,96397.16
2023-01-09T07:56:23.035Z,96408.75
2023-01-09T07:58:49.510Z,96396.59
2023-01-09T08:01:16.071Z,96403.59
2023-01-09T08:03:42.609Z,96406.13
2023-01-09T08:06:10.199Z,96396.28
2023-01-09T08:08:36.667Z,96397.88
2023-01-09T08:11:03.176Z,96395.13
2023-01-09T08:13:29.644Z,96398.69
2023-01-09T08:15:56.200Z,96398.47
2023-01-09T08:18:22.682Z,96393.56
2023-01-09T08:20:49.731Z,96398.25
2023-01-09T08:23:16.209Z,96391.25
2023-01-09T08:25:42.666Z,96402.47
2023-01-09T08:28:12.260Z,96404.34
2023-01-09T08:30:38.754Z,96400.88
2023-01-09T08:33:05.874Z,96398.47
2023-01-09T08:35:32.484Z,96397.63
2023-01-09T08:37:58.973Z,96397.81
2023-01-09T08:40:25.510Z,96400.19
2023-01-09T08:43:10.383Z,96406.22
2023-01-09T08:45:55.347Z,96401.91
2023-01-09T08:48:21.865Z,96402.72
2023-01-09T08:50:48.476Z,96406.81
2023-01-09T08:53:15.534Z,96408.28
2023-01-09T08:55:42.601Z,96401.31
2023-01-09T08:58:09.086Z,96411.22
2023-01-09T09:00:35.886Z,96404.75
2023-01-09T09:03:02.453Z,96414.94
2023-01-09T09:05:29.861Z,96406.94
2023-01-09T09:07:56.418Z,96412.16
2023-01-09T09:10:23.546Z,96415.31
2023-01-09T09:12:50.833Z,96413.00
2023-01-09T09:15:23.745Z,96410.69
2023-01-09T09:17:51.366Z,96406.84
2023-01-09T09:20:17.882Z,96410.38
2023-01-09T09:22:46.131Z,96412.69
2023-01-09T09:25:12.606Z,96408.00
2023-01-09T09:27:39.134Z,96424.56
2023-01-09T09:30:06.260Z,96416.13
2023-01-09T09:32:32.774Z,96417.50
2023-01-09T09:34:59.331Z,96422.50
2023-01-09T09:37:25.840Z,96415.75
2023-01-09T09:39:52.310Z,96416.97
2023-01-09T09:42:55.974Z,96419.09
2023-01-09T09:45:43.499Z,96419.81
2023-01-09T09:48:28.453Z,96410.19
2023-01-09T09:51:01.432Z,96406.56
2023-01-09T09:53:40.569Z,96401.41
2023-01-09T09:56:10.773Z,96401.91
2023-01-09T09:58:37.811Z,96402.41
2023-01-09T10:01:04.828Z,96409.44
2023-01-09T10:03:46.000Z,96411.25
2023-01-09T10:06:16.673Z,96404.06
2023-01-09T10:08:53.416Z,96416.13
2023-01-09T10:11:30.882Z,96399.97
2023-01-09T10:14:16.013Z,96401.19
2023-01-09T10:16:58.234Z,96387.50
2023-01-09T10:19:33.654Z,96396.41
2023-01-09T10:22:10.468Z,96389.06
2023-01-09T10:25:01.462Z,96383.53
2023-01-09T10:40:16.993Z,96382.91
2023-01-09T10:42:52.134Z,96368.00
2023-01-09T10:45:36.554Z,96376.91
2023-01-09T10:48:21.704Z,96390.00
2023-01-09T10:50:48.811Z,96387.28
2023-01-09T10:53:36.323Z,96384.78
2023-01-09T10:56:08.401Z,96382.81
2023-01-09T10:58:34.873Z,96391.06
2023-01-09T11:01:03.073Z,96392.56
2023-01-09T11:03:29.633Z,96382.34
2023-01-09T11:05:58.415Z,96394.22
2023-01-09T11:08:42.097Z,96395.94
2023-01-09T11:11:08.910Z,96402.91
2023-01-09T11:13:36.631Z,96399.72
2023-01-09T11:16:10.627Z,96407.13
2023-01-09T11:18:57.716Z,96409.16
2023-01-09T11:21:38.162Z,96405.41
2023-01-09T11:24:21.241Z,96400.69
2023-01-09T11:27:02.221Z,96403.75
2023-01-09T11:29:28.812Z,96419.06
2023-01-09T11:31:58.809Z,96417.44
2023-01-09T11:34:26.590Z,96418.19
2023-01-09T11:36:53.740Z,96419.34
2023-01-09T11:39:24.852Z,96410.16
2023-01-09T11:42:02.358Z,96418.28
2023-01-09T11:44:28.928Z,96421.41
2023-01-09T11:46:55.442Z,96427.25
2023-01-09T11:49:29.536Z,96417.16
2023-01-09T11:52:15.891Z,96412.06
2023-01-09T11:55:04.299Z,96413.16
2023-01-09T11:57:30.792Z,96422.03
2023-01-09T11:59:59.103Z,96413.81
2023-01-09T12:02:45.236Z,96404.88
2023-01-09T12:05:25.534Z,96413.50
2023-01-09T12:08:03.085Z,96418.22
2023-01-09T12:11:04.995Z,96427.44
2023-01-09T12:13:53.254Z,96429.31
2023-01-09T12:16:38.821Z,96427.50
2023-01-09T12:19:24.079Z,96432.97
2023-01-09T12:22:15.942Z,96435.03
2023-01-09T12:25:39.926Z,96434.97
2023-01-09T12:28:15.591Z,96446.22
2023-01-09T12:31:14.434Z,96440.16
2023-01-09T12:33:52.135Z,96435.81
2023-01-09T12:36:59.299Z,96435.09
2023-01-09T12:39:54.518Z,96440.22
2023-01-09T12:42:28.065Z,96433.06
2023-01-09T12:45:01.282Z,96439.78
2023-01-09T12:47:39.881Z,96428.41
2023-01-09T12:50:28.701Z,96444.19
2023-01-09T12:53:18.914Z,96439.63
2023-01-09T12:56:05.506Z,96444.75
2023-01-09T12:58:51.000Z,96446.25
2023-01-09T13:01:21.730Z,96451.38
2023-01-09T13:03:55.178Z,96444.63
2023-01-09T13:06:21.690Z,96453.16
2023-01-09T13:08:51.372Z,96449.13
2023-01-09T13:12:10.771Z,96448.25
2023-01-09T13:15:02.148Z,96442.72
2023-01-09T13:17:36.730Z,96450.34
2023-01-09T13:20:10.531Z,96449.91
2023-01-09T13:22:37.045Z,96449.72
2023-01-09T13:25:03.366Z,96462.22
2023-01-09T13:27:32.604Z,96445.25
2023-01-09T13:30:11.235Z,96445.13
2023-01-09T13:32:49.942Z,96455.00
2023-01-09T13:35:16.459Z,96456.66
2023-01-09T13:37:42.964Z,96446.91
2023-01-09T13:40:18.474Z,96452.03
2023-01-09T13:42:51.455Z,96446.84
2023-01-09T13:45:17.777Z,96443.84
2023-01-09T13:47:44.611Z,96437.81
2023-01-09T13:50:10.889Z,96448.09
2023-01-09T13:52:37.407Z,96443.34
2023-01-09T13:55:11.113Z,96448.19
2023-01-09T13:58:05.445Z,96457.16
2023-01-09T14:00:34.728Z,96462.53
2023-01-09T14:03:19.416Z,96475.28
2023-01-09T14:05:45.754Z,96486.16
2023-01-09T14:08:13.797Z,96504.25
2023-01-09T14:10:43.109Z,96528.81
2023-01-09T14:13:32.289Z,96521.97
2023-01-09T14:16:15.036Z,96542.47
2023-01-09T14:19:05.612Z,96535.22
2023-01-09T14:21:46.404Z,96536.88
2023-01-09T14:24:20.337Z,96546.66
2023-01-09T14:26:55.214Z,96552.38
2023-01-09T14:29:29.313Z,96554.75
2023-01-09T14:32:23.666Z,96567.13
2023-01-09T14:34:54.335Z,96572.72
2023-01-09T14:37:20.835Z,96568.53
2023-01-09T14:39:47.406Z,96570.94
2023-01-09T14:42:15.876Z,96575.81
2023-01-09T14:45:01.344Z,96576.31
2023-01-09T14:47:30.783Z,96582.81
2023-01-09T14:50:17.565Z,96589.91
2023-01-09T14:52:52.038Z,96584.56
2023-01-09T14:55:34.133Z,96602.00
2023-01-09T14:58:21.008Z,96603.19
2023-01-09T15:00:52.415Z,96616.22
2023-01-09T15:03:19.445Z,96619.44
2023-01-09T15:05:45.920Z,96615.78
2023-01-09T15:08:16.816Z,96632.28
2023-01-09T15:10:43.752Z,96628.03
2023-01-09T15:13:31.399Z,96641.69
2023-01-09T15:15:58.163Z,96651.34
2023-01-09T15:18:25.751Z,96645.06
2023-01-09T15:20:54.499Z,96655.44
2023-01-09T15:23:22.955Z,96651.44
2023-01-09T15:25:49.458Z,96658.44
2023-01-09T15:28:27.587Z,96674.25
2023-01-09T15:30:56.878Z,96684.16
2023-01-09T15:33:23.365Z,96682.72
2023-01-09T15:35:50.517Z,96683.19
2023-01-09T15:38:23.705Z,96692.41
2023-01-09T15:41:06.740Z,96688.75
2023-01-09T15:43:33.337Z,96697.38
2023-01-09T15:45:59.854Z,96694.22
2023-01-09T15:48:32.410Z,96699.09
2023-01-09T15:51:10.624Z,96699.66
2023-01-09T15:53:37.095Z,96699.66
2023-01-09T15:56:12.540Z,96707.00
2023-01-09T15:58:47.016Z,96713.94
2023-01-09T16:01:25.010Z,96714.91
2023-01-09T16:03:52.258Z,96715.00
2023-01-09T16:06:28.976Z,96722.97
2023-01-09T16:08:57.720Z,96733.09
2023-01-09T16:11:37.042Z,96735.22
2023-01-09T16:14:19.189Z,96738.78
2023-01-09T16:16:46.144Z,96746.50
2023-01-09T16:19:33.255Z,96740.72
2023-01-09T16:22:01.032Z,96745.88
2023-01-09T16:24:34.588Z,96759.25
2023-01-09T16:27:21.648Z,96763.53
2023-01-09T16:29:49.831Z,96755.09
2023-01-09T16:32:23.772Z,96761.84
2023-01-09T16:34:57.440Z,96756.72
2023-01-09T16:37:24.714Z,96781.38
2023-01-09T16:40:22.073Z,96780.22
2023-01-09T16:43:01.568Z,96793.72
2023-01-09T16:45:29.419Z,96800.81
2023-01-09T16:47:57.181Z,96799.03
2023-01-09T16:50:24.771Z,96807.28
2023-01-09T16:52:51.606Z,96805.53
2023-01-09T16:55:18.091Z,96802.22
2023-01-09T16:57:44.557Z,96809.06
2023-01-09T17:00:18.083Z,96808.63
2023-01-09T17:02:44.591Z,96820.25
2023-01-09T17:05:11.094Z,96824.16
2023-01-09T17:07:38.116Z,96828.16
2023-01-09T17:10:05.693Z,96835.69
2023-01-09T17:12:32.166Z,96842.25
2023-01-09T17:15:00.830Z,96850.97
2023-01-09T17:17:27.293Z,96853.97
2023-01-09T17:19:53.757Z,96854.84
2023-01-09T17:22:20.221Z,96864.34
2023-01-09T17:25:06.934Z,96853.72
2023-01-09T17:27:55.820Z,96861.63
2023-01-09T17:30:22.315Z,96866.66
2023-01-09T17:32:48.924Z,96869.16
2023-01-09T17:35:15.879Z,96871.47
2023-01-09T17:37:42.517Z,96877.22
2023-01-09T17:40:27.111Z,96877.66
2023-01-09T17:42:53.578Z,96887.78
2023-01-09T17:45:20.063Z,96888.53
2023-01-09T17:47:46.540Z,96895.78
2023-01-09T17:50:17.583Z,96897.47
2023-01-09T17:52:44.053Z,96901.47
2023-01-09T17:55:10.650Z,96905.91
2023-01-09T17:57:37.132Z,96900.47
2023-01-09T18:00:06.069Z,96915.84
2023-01-09T18:02:32.571Z,96928.72
2023-01-09T18:04:59.139Z,96931.00
2023-01-09T18:07:25.607Z,96926.91
2023-01-09T18:09:52.075Z,96939.41
2023-01-09T18:12:18.572Z,96952.38
2023-01-09T18:14:46.416Z,96946.66
2023-01-09T18:17:13.873Z,96954.28
2023-01-09T18:19:40.449Z,96947.41
2023-01-09T18:22:06.912Z,96960.31
2023-01-09T18:24:33.759Z,96960.03
2023-01-09T18:27:00.402Z,96962.22
2023-01-09T18:29:27.287Z,96961.63
2023-01-09T18:31:53.804Z,96964.44
2023-01-09T18:34:20.383Z,96964.91
2023-01-09T18:36:47.193Z,96984.59
2023-01-09T18:39:31.514Z,96987.91
2023-01-09T18:42:07.197Z,96996.41
2023-01-09T18:44:33.750Z,97006.81
2023-01-09T18:47:01.932Z,97001.09
2023-01-09T18:49:28.773Z,97013.81
2023-01-09T18:51:55.390Z,97016.78
2023-01-09T18:54:21.948Z,97016.09
2023-01-09T18:56:48.525Z,97015.41
2023-01-09T18:59:15.042Z,97026.50
2023-01-09T19:01:41.524Z,97047.47
2023-01-09T19:04:08.138Z,97035.34
2023-01-09T19:06:34.727Z,97054.34
2023-01-09T19:09:01.285Z,97054.09
2023-01-09T19:11:27.801Z,97058.47
2023-01-09T19:13:54.284Z,97059.28
2023-01-09T19:16:20.794Z,97065.09
2023-01-09T19:18:47.356Z,97081.50
2023-01-09T19:21:15.494Z,97080.69
2023-01-09T19:23:42.410Z,97078.94
2023-01-09T19:26:10.213Z,97089.56
2023-01-09T19:28:38.152Z,97092.00
2023-01-09T19:31:04.685Z,97096.72
2023-01-09T19:33:31.183Z,97107.25
2023-01-09T19:35:57.976Z,97109.09
2023-01-09T19:38:24.888Z,97124.91
2023-01-09T19:40:51.621Z,97134.63
2023-01-09T19:43:27.059Z,97126.03
2023-01-09T19:45:54.470Z,97131.97
2023-01-09T19:48:22.063Z,97135.44
2023-01-09T19:50:48.576Z,97125.31
2023-01-09T19:53:15.037Z,97144.50
2023-01-09T19:55:41.827Z,97143.56
2023-01-09T19:58:08.329Z,97143.34
2023-01-09T20:00:35.281Z,97145.53
2023-01-09T20:03:01.747Z,97156.75
2023-01-09T20:05:28.249Z,97166.59
2023-01-09T20:07:55.187Z,97162.81
2023-01-09T20:10:21.687Z,97169.78
2023-01-09T20:12:48.163Z,97176.44
2023-01-09T20:15:14.912Z,97176.78
2023-01-09T20:17:42.249Z,97179.44
2023-01-09T20:20:09.603Z,97185.84
2023-01-09T20:22:36.066Z,97179.66
2023-01-09T20:25:02.871Z,97191.94
2023-01-09T20:27:29.342Z,97206.47
2023-01-09T20:29:55.822Z,97210.72
2023-01-09T20:32:22.293Z,97221.38
2023-01-09T20:34:48.969Z,97213.00
2023-01-09T20:37:15.546Z,97220.91
2023-01-09T20:39:42.062Z,97219.06
2023-01-09T20:42:08.527Z,97219.75
2023-01-09T20:44:34.984Z,97229.28
2023-01-09T20:47:01.455Z,97234.66
2023-01-09T20:49:27.932Z,97239.81
2023-01-09T20:51:54.406Z,97239.81
2023-01-09T20:54:23.893Z,97250.59
2023-01-09T20:56:50.470Z,97252.22
2023-01-09T20:59:20.040Z,97251.28
2023-01-09T21:01:46.530Z,97249.00
2023-01-09T21:04:13.095Z,97256.44
2023-01-09T21:06:39.691Z,97249.47
2023-01-09T21:09:06.458Z,97251.84
2023-01-09T21:11:32.953Z,97258.63
2023-01-09T21:13:59.880Z,97266.66
2023-01-09T21:16:26.437Z,97272.50
2023-01-09T21:18:53.538Z,97273.97
2023-01-09T21:21:22.257Z,97282.81
2023-01-09T21:23:51.817Z,97283.69
2023-01-09T21:26:22.139Z,97281.88
2023-01-09T21:28:49.852Z,97290.59
2023-01-09T21:31:19.391Z,97296.56
2023-01-09T21:33:46.351Z,97296.78
2023-01-09T21:36:12.915Z,97297.66
2023-01-09T21:38:39.398Z,97308.19
2023-01-09T21:41:35.048Z,97316.00
2023-01-09T21:44:19.861Z,97330.44
2023-01-09T21:46:52.291Z,97341.78
2023-01-09T21:49:19.806Z,97346.28
2023-01-09T21:51:46.287Z,97340.78
2023-01-09T21:54:12.739Z,97344.66
2023-01-09T21:56:39.251Z,97351.00
2023-01-09T21:59:05.869Z,97343.66
2023-01-09T22:01:32.689Z,97354.53
2023-01-09T22:03:59.528Z,97363.94
2023-01-09T22:06:26.102Z,97368.50
2023-01-09T22:08:52.601Z,97376.28
2023-01-09T22:11:19.076Z,97377.66
2023-01-09T22:13:48.996Z,97380.56
2023-01-09T22:16:15.566Z,97387.06
2023-01-09T22:18:42.056Z,97399.19
2023-01-09T22:21:08.561Z,97392.09
2023-01-09T22:23:35.031Z,97407.47
2023-01-09T22:26:09.490Z,97410.69
2023-01-09T22:28:35.972Z,97407.72
2023-01-09T22:31:02.609Z,97413.75
2023-01-09T22:33:29.091Z,97411.59
2023-01-09T22:35:55.569Z,97410.38
2023-01-09T22:38:22.701Z,97414.50
2023-01-09T22:40:49.707Z,97418.59
2023-01-09T22:43:17.210Z,97426.66
2023-01-09T22:45:43.773Z,97429.81
2023-01-09T22:48:10.311Z,97432.72
2023-01-09T22:50:37.101Z,97442.09
2023-01-09T22:53:03.635Z,97440.59
2023-01-09T22:55:30.121Z,97453.09
2023-01-09T22:57:56.580Z,97452.53
2023-01-09T23:00:23.049Z,97456.88
2023-01-09T23:02:49.739Z,97461.66
2023-01-09T23:05:16.375Z,97466.69
2023-01-09T23:07:42.852Z,97472.31
2023-01-09T23:10:09.809Z,97475.59
2023-01-09T23:12:36.318Z,97477.22
2023-01-09T23:15:02.813Z,97476.22
2023-01-09T23:17:29.285Z,97482.66
2023-01-09T23:19:55.761Z,97486.41
2023-01-09T23:22:22.787Z,97482.38
2023-01-09T23:24:49.255Z,97485.06
2023-01-09T23:27:15.720Z,97486.13
2023-01-09T23:29:42.216Z,97490.97
2023-01-09T23:32:08.757Z,97495.88
2023-01-09T23:34:35.397Z,97503.66
2023-01-09T23:37:03.938Z,97511.34
2023-01-09T23:39:30.486Z,97521.97
2023-01-09T23:42:15.559Z,97518.06
2023-01-09T23:44:42.039Z,97523.81
2023-01-09T23:47:08.537Z,97533.25
2023-01-09T23:49:34.996Z,97535.69
2023-01-09T23:52:06.511Z,97530.78
2023-01-09T23:54:33.015Z,97537.38
2023-01-09T23:56:59.497Z,97532.28
2023-01-09T23:59:26.001Z,97543.22
